sensor_id;sensor_type;location;lat;lon;timestamp;temperature;humidity
27200;DHT22;14714;48.106;11.546;2022-07-06T00:01:52;16.40;99.90
27200;DHT22;14714;48.106;11.546;2022-07-06T00:04:19;16.50;99.90
27200;DHT22;14714;48.106;11.546;2022-07-06T00:06:46;16.50;99.90
27200;DHT22;14714;48.106;11.546;2022-07-06T00:09:13;16.60;99.90
27200;DHT22;14714;48.106;11.546;2022-07-06T00:11:40;16.60;99.90
27200;DHT22;14714;48.106;11.546;2022-07-06T00:14:07;16.70;99.90
27200;DHT22;14714;48.106;11.546;2022-07-06T00:16:34;16.80;99.90
27200;DHT22;14714;48.106;11.546;2022-07-06T00:19:01;16.80;99.90
27200;DHT22;14714;48.106;11.546;2022-07-06T00:21:27;16.80;99.90
27200;DHT22;14714;48.106;11.546;2022-07-06T00:23:54;16.90;99.90
27200;DHT22;14714;48.106;11.546;2022-07-06T00:26:21;16.90;99.90
27200;DHT22;14714;48.106;11.546;2022-07-06T00:28:48;16.80;99.90
27200;DHT22;14714;48.106;11.546;2022-07-06T00:31:15;16.80;99.90
27200;DHT22;14714;48.106;11.546;2022-07-06T00:33:42;16.80;99.90
27200;DHT22;14714;48.106;11.546;2022-07-06T00:36:09;16.70;99.90
27200;DHT22;14714;48.106;11.546;2022-07-06T00:38:35;16.70;99.90
27200;DHT22;14714;48.106;11.546;2022-07-06T00:41:02;16.60;99.90
27200;DHT22;14714;48.106;11.546;2022-07-06T00:46:18;16.50;99.90
27200;DHT22;14714;48.106;11.546;2022-07-06T00:48:45;16.50;99.90
27200;DHT22;14714;48.106;11.546;2022-07-06T00:51:13;16.50;99.90
27200;DHT22;14714;48.106;11.546;2022-07-06T00:53:40;16.50;99.90
27200;DHT22;14714;48.106;11.546;2022-07-06T00:56:08;16.50;99.90
27200;DHT22;14714;48.106;11.546;2022-07-06T00:58:36;16.50;99.90
27200;DHT22;14714;48.106;11.546;2022-07-06T01:01:03;16.50;99.90
27200;DHT22;14714;48.106;11.546;2022-07-06T01:03:30;16.50;99.90
27200;DHT22;14714;48.106;11.546;2022-07-06T01:05:56;16.60;99.90
27200;DHT22;14714;48.106;11.546;2022-07-06T01:08:23;16.60;99.90
27200;DHT22;14714;48.106;11.546;2022-07-06T01:10:51;16.60;99.90
27200;DHT22;14714;48.106;11.546;2022-07-06T01:13:18;16.70;99.90
27200;DHT22;14714;48.106;11.546;2022-07-06T01:15:45;16.70;99.90
27200;DHT22;14714;48.106;11.546;2022-07-06T01:18:12;16.70;99.90
27200;DHT22;14714;48.106;11.546;2022-07-06T01:20:39;16.70;99.90
27200;DHT22;14714;48.106;11.546;2022-07-06T01:23:06;16.70;99.90
27200;DHT22;14714;48.106;11.546;2022-07-06T01:25:33;16.70;99.90
27200;DHT22;14714;48.106;11.546;2022-07-06T01:28:00;16.70;99.90
27200;DHT22;14714;48.106;11.546;2022-07-06T01:30:27;16.70;99.90
27200;DHT22;14714;48.106;11.546;2022-07-06T01:32:54;16.60;99.90
27200;DHT22;14714;48.106;11.546;2022-07-06T01:35:21;16.50;99.90
27200;DHT22;14714;48.106;11.546;2022-07-06T01:37:48;16.50;99.90
27200;DHT22;14714;48.106;11.546;2022-07-06T01:40:15;16.50;99.90
27200;DHT22;14714;48.106;11.546;2022-07-06T01:42:42;16.40;99.90
27200;DHT22;14714;48.106;11.546;2022-07-06T01:45:09;16.40;99.90
27200;DHT22;14714;48.106;11.546;2022-07-06T01:47:36;16.40;99.90
27200;DHT22;14714;48.106;11.546;2022-07-06T01:50:06;16.30;99.90
27200;DHT22;14714;48.106;11.546;2022-07-06T01:52:33;16.30;99.90
27200;DHT22;14714;48.106;11.546;2022-07-06T01:55:00;16.30;99.90
27200;DHT22;14714;48.106;11.546;2022-07-06T01:57:27;16.20;99.90
27200;DHT22;14714;48.106;11.546;2022-07-06T01:59:54;16.20;99.90
27200;DHT22;14714;48.106;11.546;2022-07-06T02:02:21;16.20;99.90
27200;DHT22;14714;48.106;11.546;2022-07-06T02:04:48;16.10;99.90
27200;DHT22;14714;48.106;11.546;2022-07-06T02:07:15;16.10;99.90
27200;DHT22;14714;48.106;11.546;2022-07-06T02:09:41;16.10;99.90
27200;DHT22;14714;48.106;11.546;2022-07-06T02:12:08;16.00;99.90
27200;DHT22;14714;48.106;11.546;2022-07-06T02:14:35;16.00;99.90
27200;DHT22;14714;48.106;11.546;2022-07-06T02:17:02;16.00;99.90
27200;DHT22;14714;48.106;11.546;2022-07-06T02:19:29;15.90;99.90
27200;DHT22;14714;48.106;11.546;2022-07-06T02:21:56;15.90;99.90
27200;DHT22;14714;48.106;11.546;2022-07-06T02:24:22;15.80;99.90
27200;DHT22;14714;48.106;11.546;2022-07-06T02:26:49;15.80;99.90
27200;DHT22;14714;48.106;11.546;2022-07-06T02:29:16;15.80;99.90
27200;DHT22;14714;48.106;11.546;2022-07-06T02:31:43;15.80;99.90
27200;DHT22;14714;48.106;11.546;2022-07-06T02:34:10;15.80;99.90
27200;DHT22;14714;48.106;11.546;2022-07-06T02:36:36;15.70;99.90
27200;DHT22;14714;48.106;11.546;2022-07-06T02:39:03;15.70;99.90
27200;DHT22;14714;48.106;11.546;2022-07-06T02:41:30;15.70;99.90
27200;DHT22;14714;48.106;11.546;2022-07-06T02:43:57;15.70;99.90
27200;DHT22;14714;48.106;11.546;2022-07-06T02:46:24;15.70;99.90
27200;DHT22;14714;48.106;11.546;2022-07-06T02:48:51;15.70;99.90
27200;DHT22;14714;48.106;11.546;2022-07-06T02:51:17;15.60;99.90
27200;DHT22;14714;48.106;11.546;2022-07-06T02:53:44;15.60;99.90
27200;DHT22;14714;48.106;11.546;2022-07-06T02:56:11;15.50;99.90
27200;DHT22;14714;48.106;11.546;2022-07-06T02:58:38;15.50;99.90
27200;DHT22;14714;48.106;11.546;2022-07-06T03:01:04;15.40;99.90
27200;DHT22;14714;48.106;11.546;2022-07-06T03:03:32;15.40;99.90
27200;DHT22;14714;48.106;11.546;2022-07-06T03:06:00;15.30;99.90
27200;DHT22;14714;48.106;11.546;2022-07-06T03:08:26;15.20;99.90
27200;DHT22;14714;48.106;11.546;2022-07-06T03:10:53;15.20;99.90
27200;DHT22;14714;48.106;11.546;2022-07-06T03:13:20;15.10;99.90
27200;DHT22;14714;48.106;11.546;2022-07-06T03:15:47;15.00;99.90
27200;DHT22;14714;48.106;11.546;2022-07-06T03:18:14;15.00;99.90
27200;DHT22;14714;48.106;11.546;2022-07-06T03:20:40;14.90;99.90
27200;DHT22;14714;48.106;11.546;2022-07-06T03:23:07;14.90;99.90
27200;DHT22;14714;48.106;11.546;2022-07-06T03:25:34;14.80;99.90
27200;DHT22;14714;48.106;11.546;2022-07-06T03:28:01;14.80;99.90
27200;DHT22;14714;48.106;11.546;2022-07-06T03:30:28;14.80;99.90
27200;DHT22;14714;48.106;11.546;2022-07-06T03:32:55;14.70;99.90
27200;DHT22;14714;48.106;11.546;2022-07-06T03:35:21;14.70;99.90
27200;DHT22;14714;48.106;11.546;2022-07-06T03:37:48;14.70;99.90
27200;DHT22;14714;48.106;11.546;2022-07-06T03:40:15;14.70;99.90
27200;DHT22;14714;48.106;11.546;2022-07-06T03:42:42;14.70;99.90
27200;DHT22;14714;48.106;11.546;2022-07-06T03:45:09;14.70;99.90
27200;DHT22;14714;48.106;11.546;2022-07-06T03:47:36;14.70;99.90
27200;DHT22;14714;48.106;11.546;2022-07-06T03:50:03;14.70;99.90
27200;DHT22;14714;48.106;11.546;2022-07-06T03:52:30;14.70;99.90
27200;DHT22;14714;48.106;11.546;2022-07-06T03:54:57;14.70;99.90
27200;DHT22;14714;48.106;11.546;2022-07-06T03:57:23;14.70;99.90
27200;DHT22;14714;48.106;11.546;2022-07-06T03:59:52;14.80;99.90
27200;DHT22;14714;48.106;11.546;2022-07-06T04:02:18;14.80;99.90
27200;DHT22;14714;48.106;11.546;2022-07-06T04:04:45;14.90;99.90
27200;DHT22;14714;48.106;11.546;2022-07-06T04:07:12;15.20;99.90
27200;DHT22;14714;48.106;11.546;2022-07-06T04:09:40;15.70;99.90
27200;DHT22;14714;48.106;11.546;2022-07-06T04:12:07;16.50;99.90
27200;DHT22;14714;48.106;11.546;2022-07-06T04:14:34;17.20;99.90
27200;DHT22;14714;48.106;11.546;2022-07-06T04:17:01;17.90;99.90
27200;DHT22;14714;48.106;11.546;2022-07-06T04:19:51;18.50;99.90
27200;DHT22;14714;48.106;11.546;2022-07-06T04:22:18;18.80;99.90
27200;DHT22;14714;48.106;11.546;2022-07-06T04:24:45;19.00;99.90
27200;DHT22;14714;48.106;11.546;2022-07-06T04:27:12;18.90;99.90
27200;DHT22;14714;48.106;11.546;2022-07-06T04:29:38;18.70;99.90
27200;DHT22;14714;48.106;11.546;2022-07-06T04:32:06;18.50;99.90
27200;DHT22;14714;48.106;11.546;2022-07-06T04:34:33;18.30;99.90
27200;DHT22;14714;48.106;11.546;2022-07-06T04:36:59;18.10;99.90
27200;DHT22;14714;48.106;11.546;2022-07-06T04:39:26;18.10;99.90
27200;DHT22;14714;48.106;11.546;2022-07-06T04:41:54;17.90;99.90
27200;DHT22;14714;48.106;11.546;2022-07-06T04:44:20;17.80;99.90
27200;DHT22;14714;48.106;11.546;2022-07-06T04:46:47;17.80;99.90
27200;DHT22;14714;48.106;11.546;2022-07-06T04:49:14;17.80;99.90
27200;DHT22;14714;48.106;11.546;2022-07-06T04:51:41;17.80;99.90
27200;DHT22;14714;48.106;11.546;2022-07-06T04:54:08;17.80;99.90
27200;DHT22;14714;48.106;11.546;2022-07-06T04:56:34;18.10;99.90
27200;DHT22;14714;48.106;11.546;2022-07-06T04:59:01;18.70;99.90
27200;DHT22;14714;48.106;11.546;2022-07-06T05:01:28;19.40;99.90
27200;DHT22;14714;48.106;11.546;2022-07-06T05:03:55;20.00;99.90
27200;DHT22;14714;48.106;11.546;2022-07-06T05:06:22;20.40;99.90
27200;DHT22;14714;48.106;11.546;2022-07-06T05:08:49;20.50;99.90
27200;DHT22;14714;48.106;11.546;2022-07-06T05:11:15;20.90;99.90
27200;DHT22;14714;48.106;11.546;2022-07-06T05:13:42;21.90;99.90
27200;DHT22;14714;48.106;11.546;2022-07-06T05:16:09;23.40;99.90
27200;DHT22;14714;48.106;11.546;2022-07-06T05:18:36;25.10;96.90
27200;DHT22;14714;48.106;11.546;2022-07-06T05:21:03;26.90;91.50
27200;DHT22;14714;48.106;11.546;2022-07-06T05:23:30;28.70;77.20
27200;DHT22;14714;48.106;11.546;2022-07-06T05:25:57;30.30;64.90
27200;DHT22;14714;48.106;11.546;2022-07-06T05:28:23;31.70;58.50
27200;DHT22;14714;48.106;11.546;2022-07-06T05:30:51;32.80;52.60
27200;DHT22;14714;48.106;11.546;2022-07-06T05:33:18;33.10;47.90
27200;DHT22;14714;48.106;11.546;2022-07-06T05:35:44;32.70;49.90
27200;DHT22;14714;48.106;11.546;2022-07-06T05:38:17;32.90;46.30
27200;DHT22;14714;48.106;11.546;2022-07-06T05:40:45;32.70;47.00
27200;DHT22;14714;48.106;11.546;2022-07-06T05:43:12;32.50;44.40
27200;DHT22;14714;48.106;11.546;2022-07-06T05:45:39;31.80;48.30
27200;DHT22;14714;48.106;11.546;2022-07-06T05:48:06;31.40;46.40
27200;DHT22;14714;48.106;11.546;2022-07-06T05:50:52;30.90;49.20
27200;DHT22;14714;48.106;11.546;2022-07-06T05:53:19;31.50;47.70
27200;DHT22;14714;48.106;11.546;2022-07-06T05:55:46;31.50;45.90
27200;DHT22;14714;48.106;11.546;2022-07-06T05:58:14;31.10;45.70
27200;DHT22;14714;48.106;11.546;2022-07-06T06:00:41;31.40;47.20
27200;DHT22;14714;48.106;11.546;2022-07-06T06:03:08;32.20;45.00
27200;DHT22;14714;48.106;11.546;2022-07-06T06:05:35;31.90;45.70
27200;DHT22;14714;48.106;11.546;2022-07-06T06:08:02;31.90;47.10
27200;DHT22;14714;48.106;11.546;2022-07-06T06:10:29;32.70;44.60
27200;DHT22;14714;48.106;11.546;2022-07-06T06:12:56;33.70;43.80
27200;DHT22;14714;48.106;11.546;2022-07-06T06:15:23;34.90;41.20
27200;DHT22;14714;48.106;11.546;2022-07-06T06:17:50;36.10;39.70
27200;DHT22;14714;48.106;11.546;2022-07-06T06:20:17;36.90;36.40
27200;DHT22;14714;48.106;11.546;2022-07-06T06:22:51;37.60;35.80
27200;DHT22;14714;48.106;11.546;2022-07-06T06:25:20;38.30;35.10
27200;DHT22;14714;48.106;11.546;2022-07-06T06:27:47;39.10;33.40
27200;DHT22;14714;48.106;11.546;2022-07-06T06:30:14;39.70;32.80
27200;DHT22;14714;48.106;11.546;2022-07-06T06:32:41;40.20;29.20
27200;DHT22;14714;48.106;11.546;2022-07-06T06:35:08;40.20;30.60
27200;DHT22;14714;48.106;11.546;2022-07-06T06:37:36;40.30;29.40
27200;DHT22;14714;48.106;11.546;2022-07-06T06:40:04;40.40;29.60
27200;DHT22;14714;48.106;11.546;2022-07-06T06:42:34;40.50;28.70
27200;DHT22;14714;48.106;11.546;2022-07-06T06:45:01;40.40;28.30
27200;DHT22;14714;48.106;11.546;2022-07-06T06:47:28;40.20;28.90
27200;DHT22;14714;48.106;11.546;2022-07-06T06:49:55;40.50;29.20
27200;DHT22;14714;48.106;11.546;2022-07-06T06:52:22;40.80;28.00
27200;DHT22;14714;48.106;11.546;2022-07-06T06:55:07;41.20;28.70
27200;DHT22;14714;48.106;11.546;2022-07-06T06:57:34;41.80;27.60
27200;DHT22;14714;48.106;11.546;2022-07-06T07:00:02;42.30;27.40
27200;DHT22;14714;48.106;11.546;2022-07-06T07:02:29;42.10;26.90
27200;DHT22;14714;48.106;11.546;2022-07-06T07:04:56;41.90;26.90
27200;DHT22;14714;48.106;11.546;2022-07-06T07:07:23;41.60;27.50
27200;DHT22;14714;48.106;11.546;2022-07-06T07:09:50;41.70;26.70
27200;DHT22;14714;48.106;11.546;2022-07-06T07:12:16;41.90;27.20
27200;DHT22;14714;48.106;11.546;2022-07-06T07:14:44;42.20;27.40
27200;DHT22;14714;48.106;11.546;2022-07-06T07:17:11;42.60;26.50
27200;DHT22;14714;48.106;11.546;2022-07-06T07:20:01;42.70;26.50
27200;DHT22;14714;48.106;11.546;2022-07-06T07:38:22;42.10;26.60
27200;DHT22;14714;48.106;11.546;2022-07-06T07:41:58;41.20;27.60
27200;DHT22;14714;48.106;11.546;2022-07-06T07:44:25;41.40;25.50
27200;DHT22;14714;48.106;11.546;2022-07-06T07:47:12;40.90;28.10
27200;DHT22;14714;48.106;11.546;2022-07-06T07:49:39;40.80;27.70
27200;DHT22;14714;48.106;11.546;2022-07-06T07:52:06;41.10;27.70
27200;DHT22;14714;48.106;11.546;2022-07-06T07:54:33;41.50;26.60
27200;DHT22;14714;48.106;11.546;2022-07-06T07:57:00;41.90;26.40
27200;DHT22;14714;48.106;11.546;2022-07-06T07:59:27;42.40;25.50
27200;DHT22;14714;48.106;11.546;2022-07-06T08:01:54;42.50;25.20
27200;DHT22;14714;48.106;11.546;2022-07-06T08:04:22;42.70;23.90
27200;DHT22;14714;48.106;11.546;2022-07-06T08:07:15;42.80;24.70
27200;DHT22;14714;48.106;11.546;2022-07-06T08:09:42;43.10;24.30
27200;DHT22;14714;48.106;11.546;2022-07-06T08:12:09;43.20;24.40
27200;DHT22;14714;48.106;11.546;2022-07-06T08:14:39;42.90;24.00
27200;DHT22;14714;48.106;11.546;2022-07-06T08:17:16;42.90;24.10
27200;DHT22;14714;48.106;11.546;2022-07-06T08:19:43;42.90;24.10
27200;DHT22;14714;48.106;11.546;2022-07-06T08:22:23;42.70;23.70
27200;DHT22;14714;48.106;11.546;2022-07-06T08:24:50;42.80;24.10
27200;DHT22;14714;48.106;11.546;2022-07-06T08:27:18;42.90;24.20
27200;DHT22;14714;48.106;11.546;2022-07-06T08:52:10;43.40;25.60
27200;DHT22;14714;48.106;11.546;2022-07-06T08:54:38;43.40;25.90
27200;DHT22;14714;48.106;11.546;2022-07-06T08:57:08;43.30;23.90
27200;DHT22;14714;48.106;11.546;2022-07-06T09:38:08;37.00;30.90
27200;DHT22;14714;48.106;11.546;2022-07-06T09:40:54;37.40;30.60
27200;DHT22;14714;48.106;11.546;2022-07-06T09:47:10;37.60;28.90
27200;DHT22;14714;48.106;11.546;2022-07-06T09:49:40;37.60;31.10
27200;DHT22;14714;48.106;11.546;2022-07-06T09:52:10;37.80;28.20
27200;DHT22;14714;48.106;11.546;2022-07-06T09:54:38;37.80;30.10
27200;DHT22;14714;48.106;11.546;2022-07-06T09:57:06;38.20;29.20
27200;DHT22;14714;48.106;11.546;2022-07-06T09:59:35;38.40;28.00
27200;DHT22;14714;48.106;11.546;2022-07-06T10:02:05;38.20;27.90
27200;DHT22;14714;48.106;11.546;2022-07-06T10:04:33;38.00;28.80
27200;DHT22;14714;48.106;11.546;2022-07-06T10:07:00;37.90;28.10
27200;DHT22;14714;48.106;11.546;2022-07-06T10:09:29;37.20;29.30
27200;DHT22;14714;48.106;11.546;2022-07-06T10:12:15;36.70;28.10
27200;DHT22;14714;48.106;11.546;2022-07-06T10:15:02;36.00;30.00
27200;DHT22;14714;48.106;11.546;2022-07-06T10:17:30;35.80;30.40
27200;DHT22;14714;48.106;11.546;2022-07-06T10:19:57;35.90;31.80
27200;DHT22;14714;48.106;11.546;2022-07-06T10:22:34;36.10;31.10
27200;DHT22;14714;48.106;11.546;2022-07-06T10:25:02;35.90;31.80
27200;DHT22;14714;48.106;11.546;2022-07-06T10:27:36;35.70;31.60
27200;DHT22;14714;48.106;11.546;2022-07-06T10:30:07;35.40;31.50
27200;DHT22;14714;48.106;11.546;2022-07-06T10:32:35;35.10;35.00
27200;DHT22;14714;48.106;11.546;2022-07-06T10:35:04;35.10;33.80
27200;DHT22;14714;48.106;11.546;2022-07-06T10:37:31;35.20;33.10
27200;DHT22;14714;48.106;11.546;2022-07-06T10:40:00;34.80;32.00
27200;DHT22;14714;48.106;11.546;2022-07-06T10:42:47;34.20;31.90
27200;DHT22;14714;48.106;11.546;2022-07-06T10:50:40;34.00;33.90
27200;DHT22;14714;48.106;11.546;2022-07-06T10:53:14;33.60;34.00
27200;DHT22;14714;48.106;11.546;2022-07-06T10:55:44;32.90;34.70
27200;DHT22;14714;48.106;11.546;2022-07-06T10:58:13;32.70;36.10
27200;DHT22;14714;48.106;11.546;2022-07-06T11:00:55;32.70;35.70
27200;DHT22;14714;48.106;11.546;2022-07-06T11:03:32;32.50;35.10
27200;DHT22;14714;48.106;11.546;2022-07-06T11:06:04;32.20;36.30
27200;DHT22;14714;48.106;11.546;2022-07-06T11:08:57;32.10;37.50
27200;DHT22;14714;48.106;11.546;2022-07-06T11:14:04;32.10;37.40
27200;DHT22;14714;48.106;11.546;2022-07-06T11:19:23;32.30;37.00
27200;DHT22;14714;48.106;11.546;2022-07-06T11:21:55;32.20;35.40
27200;DHT22;14714;48.106;11.546;2022-07-06T11:24:30;32.10;35.90
27200;DHT22;14714;48.106;11.546;2022-07-06T11:26:59;32.10;37.40
27200;DHT22;14714;48.106;11.546;2022-07-06T11:29:28;31.90;36.50
27200;DHT22;14714;48.106;11.546;2022-07-06T11:31:58;31.50;37.50
27200;DHT22;14714;48.106;11.546;2022-07-06T11:34:30;31.30;38.50
27200;DHT22;14714;48.106;11.546;2022-07-06T11:36:59;31.00;38.70
27200;DHT22;14714;48.106;11.546;2022-07-06T11:39:30;30.80;38.90
27200;DHT22;14714;48.106;11.546;2022-07-06T11:41:58;30.80;40.10
27200;DHT22;14714;48.106;11.546;2022-07-06T11:44:25;30.80;38.80
27200;DHT22;14714;48.106;11.546;2022-07-06T11:46:52;30.60;40.00
27200;DHT22;14714;48.106;11.546;2022-07-06T11:49:21;30.50;40.00
27200;DHT22;14714;48.106;11.546;2022-07-06T11:51:48;30.40;39.00
27200;DHT22;14714;48.106;11.546;2022-07-06T11:54:17;30.30;38.20
27200;DHT22;14714;48.106;11.546;2022-07-06T11:56:55;30.20;39.60
27200;DHT22;14714;48.106;11.546;2022-07-06T11:59:25;30.10;39.40
27200;DHT22;14714;48.106;11.546;2022-07-06T12:04:36;29.80;41.10
27200;DHT22;14714;48.106;11.546;2022-07-06T12:07:10;29.80;40.60
27200;DHT22;14714;48.106;11.546;2022-07-06T12:09:40;29.50;41.00
27200;DHT22;14714;48.106;11.546;2022-07-06T12:12:08;29.30;41.90
27200;DHT22;14714;48.106;11.546;2022-07-06T12:14:39;29.10;41.50
27200;DHT22;14714;48.106;11.546;2022-07-06T12:17:16;28.90;41.50
27200;DHT22;14714;48.106;11.546;2022-07-06T12:19:43;28.70;40.50
27200;DHT22;14714;48.106;11.546;2022-07-06T12:22:11;28.30;41.50
27200;DHT22;14714;48.106;11.546;2022-07-06T12:24:43;28.20;40.70
27200;DHT22;14714;48.106;11.546;2022-07-06T12:29:42;27.90;41.50
27200;DHT22;14714;48.106;11.546;2022-07-06T12:32:35;27.70;42.50
27200;DHT22;14714;48.106;11.546;2022-07-06T12:35:07;27.60;43.30
27200;DHT22;14714;48.106;11.546;2022-07-06T12:37:35;27.70;42.40
27200;DHT22;14714;48.106;11.546;2022-07-06T12:40:14;27.90;41.70
27200;DHT22;14714;48.106;11.546;2022-07-06T12:42:46;27.90;41.70
27200;DHT22;14714;48.106;11.546;2022-07-06T12:45:16;27.80;42.70
27200;DHT22;14714;48.106;11.546;2022-07-06T12:50:36;27.70;43.20
27200;DHT22;14714;48.106;11.546;2022-07-06T12:53:05;27.80;42.90
27200;DHT22;14714;48.106;11.546;2022-07-06T12:55:32;27.70;43.90
27200;DHT22;14714;48.106;11.546;2022-07-06T12:57:59;27.50;42.50
27200;DHT22;14714;48.106;11.546;2022-07-06T13:00:26;27.40;45.00
27200;DHT22;14714;48.106;11.546;2022-07-06T13:02:54;27.30;43.40
27200;DHT22;14714;48.106;11.546;2022-07-06T13:05:37;27.10;42.90
27200;DHT22;14714;48.106;11.546;2022-07-06T13:08:06;26.90;43.30
27200;DHT22;14714;48.106;11.546;2022-07-06T13:10:33;26.70;43.90
27200;DHT22;14714;48.106;11.546;2022-07-06T13:13:02;26.70;44.30
27200;DHT22;14714;48.106;11.546;2022-07-06T13:15:29;26.70;44.70
27200;DHT22;14714;48.106;11.546;2022-07-06T13:17:57;26.80;44.10
27200;DHT22;14714;48.106;11.546;2022-07-06T13:20:24;26.80;44.00
27200;DHT22;14714;48.106;11.546;2022-07-06T13:22:51;26.90;44.60
27200;DHT22;14714;48.106;11.546;2022-07-06T13:52:40;26.20;47.20
27200;DHT22;14714;48.106;11.546;2022-07-06T14:03:54;26.20;46.40
27200;DHT22;14714;48.106;11.546;2022-07-06T14:23:23;25.80;45.60
27200;DHT22;14714;48.106;11.546;2022-07-06T14:30:52;25.70;46.20
27200;DHT22;14714;48.106;11.546;2022-07-06T14:33:19;25.70;45.50
27200;DHT22;14714;48.106;11.546;2022-07-06T14:35:56;25.70;44.80
27200;DHT22;14714;48.106;11.546;2022-07-06T14:38:23;25.50;45.40
27200;DHT22;14714;48.106;11.546;2022-07-06T14:40:50;25.40;46.10
27200;DHT22;14714;48.106;11.546;2022-07-06T14:43:18;25.50;44.10
27200;DHT22;14714;48.106;11.546;2022-07-06T14:45:47;25.50;44.50
27200;DHT22;14714;48.106;11.546;2022-07-06T14:48:14;25.60;45.00
27200;DHT22;14714;48.106;11.546;2022-07-06T14:50:54;25.70;45.20
27200;DHT22;14714;48.106;11.546;2022-07-06T14:53:36;25.80;44.90
27200;DHT22;14714;48.106;11.546;2022-07-06T14:56:35;25.80;45.90
27200;DHT22;14714;48.106;11.546;2022-07-06T14:59:23;25.70;45.30
27200;DHT22;14714;48.106;11.546;2022-07-06T15:01:56;25.70;45.20
27200;DHT22;14714;48.106;11.546;2022-07-06T15:04:40;25.60;45.80
27200;DHT22;14714;48.106;11.546;2022-07-06T15:07:17;25.60;45.70
27200;DHT22;14714;48.106;11.546;2022-07-06T15:09:54;25.60;46.40
27200;DHT22;14714;48.106;11.546;2022-07-06T15:12:27;25.60;45.10
27200;DHT22;14714;48.106;11.546;2022-07-06T15:15:04;25.60;44.80
27200;DHT22;14714;48.106;11.546;2022-07-06T15:17:32;25.70;46.20
27200;DHT22;14714;48.106;11.546;2022-07-06T15:19:59;25.70;45.50
27200;DHT22;14714;48.106;11.546;2022-07-06T15:22:27;25.70;44.20
27200;DHT22;14714;48.106;11.546;2022-07-06T15:24:57;25.70;44.40
27200;DHT22;14714;48.106;11.546;2022-07-06T15:27:24;25.60;44.00
27200;DHT22;14714;48.106;11.546;2022-07-06T15:29:51;25.50;44.00
27200;DHT22;14714;48.106;11.546;2022-07-06T15:32:18;25.40;45.20
27200;DHT22;14714;48.106;11.546;2022-07-06T15:34:45;25.40;45.60
27200;DHT22;14714;48.106;11.546;2022-07-06T15:37:12;25.40;46.30
27200;DHT22;14714;48.106;11.546;2022-07-06T15:39:39;25.50;44.80
27200;DHT22;14714;48.106;11.546;2022-07-06T15:42:06;25.50;43.80
27200;DHT22;14714;48.106;11.546;2022-07-06T15:44:33;25.50;44.30
27200;DHT22;14714;48.106;11.546;2022-07-06T15:47:07;25.50;44.80
27200;DHT22;14714;48.106;11.546;2022-07-06T15:49:48;25.50;45.20
27200;DHT22;14714;48.106;11.546;2022-07-06T15:56:12;25.50;44.20
27200;DHT22;14714;48.106;11.546;2022-07-06T15:59:36;25.40;45.50
27200;DHT22;14714;48.106;11.546;2022-07-06T16:03:17;25.50;43.80
27200;DHT22;14714;48.106;11.546;2022-07-06T16:06:52;25.50;44.20
27200;DHT22;14714;48.106;11.546;2022-07-06T16:09:39;25.50;43.90
27200;DHT22;14714;48.106;11.546;2022-07-06T16:12:06;25.30;44.40
27200;DHT22;14714;48.106;11.546;2022-07-06T16:14:34;25.30;44.00
27200;DHT22;14714;48.106;11.546;2022-07-06T16:17:01;25.20;43.80
27200;DHT22;14714;48.106;11.546;2022-07-06T16:19:28;25.20;44.20
27200;DHT22;14714;48.106;11.546;2022-07-06T16:21:55;25.10;44.60
27200;DHT22;14714;48.106;11.546;2022-07-06T16:24:22;25.00;44.20
27200;DHT22;14714;48.106;11.546;2022-07-06T16:26:49;25.00;43.90
27200;DHT22;14714;48.106;11.546;2022-07-06T16:29:16;24.90;45.30
27200;DHT22;14714;48.106;11.546;2022-07-06T16:31:43;24.80;45.90
27200;DHT22;14714;48.106;11.546;2022-07-06T16:34:10;24.70;45.40
27200;DHT22;14714;48.106;11.546;2022-07-06T16:36:36;24.60;45.90
27200;DHT22;14714;48.106;11.546;2022-07-06T16:39:03;24.50;45.50
27200;DHT22;14714;48.106;11.546;2022-07-06T16:41:30;24.40;46.20
27200;DHT22;14714;48.106;11.546;2022-07-06T16:43:57;24.30;46.50
27200;DHT22;14714;48.106;11.546;2022-07-06T16:46:24;24.40;45.90
27200;DHT22;14714;48.106;11.546;2022-07-06T16:48:51;24.40;46.40
27200;DHT22;14714;48.106;11.546;2022-07-06T16:51:18;24.60;46.20
27200;DHT22;14714;48.106;11.546;2022-07-06T16:53:44;24.60;45.80
27200;DHT22;14714;48.106;11.546;2022-07-06T16:56:11;24.60;45.90
27200;DHT22;14714;48.106;11.546;2022-07-06T16:58:38;24.70;45.50
27200;DHT22;14714;48.106;11.546;2022-07-06T17:01:05;24.70;45.40
27200;DHT22;14714;48.106;11.546;2022-07-06T17:03:33;24.70;45.50
27200;DHT22;14714;48.106;11.546;2022-07-06T17:06:00;24.60;45.00
27200;DHT22;14714;48.106;11.546;2022-07-06T17:08:27;24.60;45.70
27200;DHT22;14714;48.106;11.546;2022-07-06T17:10:54;24.50;46.50
27200;DHT22;14714;48.106;11.546;2022-07-06T17:13:20;24.30;46.60
27200;DHT22;14714;48.106;11.546;2022-07-06T17:15:47;24.20;48.10
27200;DHT22;14714;48.106;11.546;2022-07-06T17:18:20;24.20;47.50
27200;DHT22;14714;48.106;11.546;2022-07-06T17:20:47;24.10;47.30
27200;DHT22;14714;48.106;11.546;2022-07-06T17:23:14;24.00;46.90
27200;DHT22;14714;48.106;11.546;2022-07-06T17:25:41;23.90;47.70
27200;DHT22;14714;48.106;11.546;2022-07-06T17:28:08;23.90;47.30
27200;DHT22;14714;48.106;11.546;2022-07-06T17:30:35;23.80;47.40
27200;DHT22;14714;48.106;11.546;2022-07-06T17:33:03;23.70;47.80
27200;DHT22;14714;48.106;11.546;2022-07-06T17:35:30;23.60;48.70
27200;DHT22;14714;48.106;11.546;2022-07-06T17:37:58;23.50;49.90
27200;DHT22;14714;48.106;11.546;2022-07-06T17:40:26;23.30;50.00
27200;DHT22;14714;48.106;11.546;2022-07-06T17:42:53;23.20;50.10
27200;DHT22;14714;48.106;11.546;2022-07-06T17:45:20;23.20;49.50
27200;DHT22;14714;48.106;11.546;2022-07-06T17:47:47;23.10;49.60
27200;DHT22;14714;48.106;11.546;2022-07-06T17:50:14;23.10;50.00
27200;DHT22;14714;48.106;11.546;2022-07-06T17:52:41;23.10;50.00
27200;DHT22;14714;48.106;11.546;2022-07-06T17:55:08;23.10;49.10
27200;DHT22;14714;48.106;11.546;2022-07-06T17:57:35;23.00;49.30
27200;DHT22;14714;48.106;11.546;2022-07-06T18:00:04;22.90;50.30
27200;DHT22;14714;48.106;11.546;2022-07-06T18:02:31;22.80;50.60
27200;DHT22;14714;48.106;11.546;2022-07-06T18:04:58;22.70;50.90
27200;DHT22;14714;48.106;11.546;2022-07-06T18:07:24;22.60;51.00
27200;DHT22;14714;48.106;11.546;2022-07-06T18:09:51;22.40;51.60
27200;DHT22;14714;48.106;11.546;2022-07-06T18:12:21;22.30;51.90
27200;DHT22;14714;48.106;11.546;2022-07-06T18:14:48;22.20;52.50